Strona główna
METAR-TAF:

METAR-TAF

Lotnisko :

Nörvenich, Niemcy

Szerokość geograficzna: 50-50N, Długość geograficzna: 006-40E, wysokość: 118 m

Aktualna obserwacja pogody

Raport powstał 38 minut temu, godzina 11:20 UTC
Wiatr 3 kt od południowy wschód
Temperatura 8°C
Wilgotność 93%
Ciśnienie 1006 hPa
Widzialność: 8000 m
Mało chmury na wysokości 3000 ft
Zachmurzenie całkowite na wysokości 4000 ft
deszcz

METAR: ETNN 161120Z 13003KT 8000 RA FEW030 OVC040 08/07 Q1006 BLU BLU TEMPO WHT

czas: 12:58 (11:58 UTC)

Prognoza

Raport powstał 43 minut temu, godzina 11:15 UTC
Prognoza ważna od 16 godzina 12 UTC do 16 godzina 21 UTC
Wiatr 6 kt od południowy wschód
Widzialność 10 km lub więcej
Rozproszone chmury na wysokości 1500 ft
Przerywane chmury na wysokości 3000 ft

TAF: ETNN 161115Z 1612/1621 14006KT 9999 NSW SCT015 BKN030 BY ETGL

Obserwacja i prognoza pogody dla ponad 4000 lotnisk (raport METAR i TAF).

Dostępne stacje oznaczono żółtymi i czerwonymi punktami na mapie.

Najedź kursorem aby zobaczyć nazwę stacji.

Kliknij aby zobaczyć obserwacje i prognozy pogody.

Aby zmienić mapę: kliknij na zielony przycisk z czarnym krzyżykiem, aby powiększyć; na zielony przycisk z myślnikiem, aby pomniejszyć; na zielone strzałki, aby przejść do map sąsiednich.


METAR-TAF: